createdAt,value
2018-09-03T00:01:01.913Z,74.15
2018-09-03T00:03:30.557Z,74.97
2018-09-03T00:05:59.453Z,75.51
2018-09-03T00:08:28.232Z,74.54
2018-09-03T00:10:56.994Z,74.88
2018-09-03T00:13:25.758Z,74.70
2018-09-03T00:15:54.510Z,74.30
2018-09-03T00:18:23.433Z,74.84
2018-09-03T00:20:52.171Z,75.15
2018-09-03T00:23:21.259Z,75.05
2018-09-03T00:25:50.127Z,75.84
2018-09-03T00:28:18.986Z,75.51
2018-09-03T00:30:47.946Z,76.63
2018-09-03T00:33:22.046Z,76.04
2018-09-03T00:35:56.087Z,76.42
2018-09-03T00:38:29.860Z,76.80
2018-09-03T00:42:02.048Z,77.35
2018-09-03T00:44:36.272Z,77.08
2018-09-03T00:47:07.311Z,76.78
2018-09-03T00:49:36.023Z,76.78
2018-09-03T00:52:04.883Z,76.46
2018-09-03T00:54:34.348Z,76.69
2018-09-03T00:57:03.211Z,75.78
2018-09-03T00:59:31.840Z,76.43
2018-09-03T01:02:00.451Z,76.32
2018-09-03T01:04:29.338Z,76.57
2018-09-03T01:06:58.278Z,76.40
2018-09-03T01:09:27.054Z,76.66
2018-09-03T01:11:56.005Z,77.38
2018-09-03T01:14:24.660Z,77.30
2018-09-03T01:16:53.431Z,77.72
2018-09-03T01:19:22.167Z,77.16
2018-09-03T01:21:50.972Z,77.68
2018-09-03T01:24:19.579Z,78.35
2018-09-03T01:26:48.248Z,77.62
2018-09-03T01:29:16.957Z,77.36
2018-09-03T01:31:45.702Z,77.42
2018-09-03T01:34:14.611Z,77.34
2018-09-03T01:36:43.290Z,77.56
2018-09-03T01:39:12.051Z,77.07
2018-09-03T01:41:40.810Z,78.40
2018-09-03T01:44:09.613Z,78.38
2018-09-03T01:46:38.322Z,78.34
2018-09-03T01:49:07.044Z,77.58
2018-09-03T01:51:35.703Z,77.73
2018-09-03T01:54:04.425Z,77.80
2018-09-03T01:56:35.253Z,77.79
2018-09-03T01:59:03.906Z,78.09
2018-09-03T02:01:32.892Z,79.04
2018-09-03T02:04:01.877Z,78.85
2018-09-03T02:06:31.030Z,79.07
2018-09-03T02:08:59.692Z,80.54
2018-09-03T02:11:28.624Z,79.63
2018-09-03T02:13:57.620Z,78.96
2018-09-03T02:16:26.518Z,79.01
2018-09-03T02:18:55.231Z,78.48
2018-09-03T02:21:24.083Z,78.75
2018-09-03T02:23:52.733Z,79.19
2018-09-03T02:26:21.812Z,79.17
2018-09-03T02:28:50.574Z,79.35
2018-09-03T02:31:19.372Z,80.37
2018-09-03T02:33:49.026Z,79.53
2018-09-03T02:36:17.692Z,79.44
2018-09-03T02:38:46.374Z,79.72
2018-09-03T02:41:14.997Z,79.25
2018-09-03T02:43:43.818Z,79.30
2018-09-03T02:46:12.680Z,79.24
2018-09-03T02:48:41.471Z,78.99
2018-09-03T02:51:10.132Z,78.89
2018-09-03T02:53:39.019Z,78.95
2018-09-03T02:56:07.708Z,79.11
2018-09-03T02:58:36.427Z,79.23
2018-09-03T03:01:05.502Z,78.96
2018-09-03T03:03:34.390Z,79.08
2018-09-03T03:06:03.179Z,79.24
2018-09-03T03:08:31.929Z,79.33
2018-09-03T03:11:00.642Z,79.28
2018-09-03T03:13:29.517Z,80.30
2018-09-03T03:15:58.134Z,81.22
2018-09-03T03:18:26.897Z,79.89
2018-09-03T03:20:55.770Z,80.06
2018-09-03T03:23:24.607Z,79.84
2018-09-03T03:25:53.295Z,79.59
2018-09-03T03:28:22.431Z,80.57
2018-09-03T03:30:51.146Z,80.67
2018-09-03T03:33:19.939Z,80.56
2018-09-03T03:35:48.674Z,80.12
2018-09-03T03:38:17.487Z,79.94
2018-09-03T03:40:46.201Z,79.86
2018-09-03T03:43:15.099Z,80.02
2018-09-03T03:45:44.144Z,80.18
2018-09-03T03:48:12.853Z,80.52
2018-09-03T03:50:41.853Z,80.15
2018-09-03T03:53:10.699Z,81.68
2018-09-03T03:55:39.375Z,80.96
2018-09-03T03:58:08.183Z,80.28
2018-09-03T04:00:36.853Z,80.37
2018-09-03T04:03:05.742Z,80.74
2018-09-03T04:05:34.572Z,81.05
2018-09-03T04:08:03.256Z,81.59
2018-09-03T04:10:31.978Z,82.06
2018-09-03T04:13:06.783Z,81.64
2018-09-03T04:15:36.277Z,82.52
2018-09-03T04:18:05.258Z,82.89
2018-09-03T04:20:33.929Z,83.48
2018-09-03T04:23:03.044Z,83.12
2018-09-03T04:25:31.647Z,82.84
2018-09-03T04:28:00.527Z,82.29
2018-09-03T04:30:29.428Z,83.36
2018-09-03T04:32:58.281Z,83.43
2018-09-03T04:35:26.906Z,85.29
2018-09-03T04:37:55.618Z,86.59
2018-09-03T04:40:25.079Z,85.19
2018-09-03T04:42:53.910Z,84.39
2018-09-03T04:45:22.659Z,85.68
2018-09-03T04:47:51.469Z,85.40
2018-09-03T04:50:20.275Z,86.79
2018-09-03T04:52:48.912Z,86.63
2018-09-03T04:55:17.680Z,85.75
2018-09-03T04:57:47.066Z,84.67
2018-09-03T05:00:16.309Z,85.92
2018-09-03T05:02:45.496Z,85.38
2018-09-03T05:05:14.136Z,85.34
2018-09-03T05:07:42.745Z,84.79
2018-09-03T05:10:11.391Z,85.59
2018-09-03T05:12:40.005Z,85.51
2018-09-03T05:15:08.712Z,84.96
2018-09-03T05:17:37.528Z,84.71
2018-09-03T05:20:06.619Z,85.41
2018-09-03T05:22:35.540Z,84.12
2018-09-03T05:25:04.203Z,84.57
2018-09-03T05:27:33.166Z,83.60
2018-09-03T05:30:02.218Z,84.53
2018-09-03T05:32:31.018Z,83.85
2018-09-03T05:34:59.777Z,83.28
2018-09-03T05:37:28.349Z,83.06
2018-09-03T05:39:56.933Z,83.94
2018-09-03T05:42:25.850Z,83.67
2018-09-03T05:44:54.727Z,83.33
2018-09-03T05:47:23.439Z,83.64
2018-09-03T05:49:52.215Z,83.53
2018-09-03T05:52:20.911Z,84.12
2018-09-03T05:54:49.628Z,82.69
2018-09-03T05:57:18.379Z,82.98
2018-09-03T05:59:46.973Z,82.97
2018-09-03T06:02:15.573Z,83.98
2018-09-03T06:04:44.498Z,83.98
2018-09-03T06:07:13.195Z,83.69
2018-09-03T06:09:41.860Z,83.22
2018-09-03T06:12:10.578Z,83.64
2018-09-03T06:14:39.229Z,82.37
2018-09-03T06:17:07.906Z,82.65
2018-09-03T06:19:36.639Z,81.57
2018-09-03T06:22:05.851Z,81.51
2018-09-03T06:24:34.602Z,81.10
2018-09-03T06:27:03.505Z,79.78
2018-09-03T06:29:32.135Z,78.95
2018-09-03T06:32:00.782Z,78.06
2018-09-03T06:34:29.395Z,77.13
2018-09-03T06:36:58.032Z,75.60
2018-09-03T06:39:26.764Z,73.07
2018-09-03T06:41:55.414Z,70.47
2018-09-03T06:44:24.404Z,70.88
2018-09-03T06:46:53.000Z,69.87
2018-09-03T06:49:21.801Z,65.09
2018-09-03T06:51:50.468Z,64.14
2018-09-03T06:54:19.542Z,66.19
2018-09-03T06:56:48.152Z,61.04
2018-09-03T06:59:16.841Z,61.92
2018-09-03T07:01:45.454Z,58.45
2018-09-03T07:04:14.080Z,57.89
2018-09-03T07:06:42.728Z,59.16
2018-09-03T07:09:11.455Z,56.89
2018-09-03T07:11:40.894Z,56.13
2018-09-03T07:14:09.581Z,53.94
2018-09-03T07:16:38.447Z,54.87
2018-09-03T07:19:07.229Z,52.67
2018-09-03T07:21:36.027Z,53.81
2018-09-03T07:24:04.683Z,51.11
2018-09-03T07:26:33.774Z,52.67
2018-09-03T07:29:02.388Z,49.84
2018-09-03T07:31:31.462Z,51.02
2018-09-03T07:34:00.182Z,49.38
2018-09-03T07:36:28.862Z,48.45
2018-09-03T07:38:57.543Z,49.08
2018-09-03T07:41:26.355Z,50.10
2018-09-03T07:43:55.029Z,47.47
2018-09-03T07:46:23.994Z,48.33
2018-09-03T07:48:53.044Z,48.68
2018-09-03T07:51:21.853Z,48.36
2018-09-03T07:53:50.501Z,47.88
2018-09-03T07:56:19.197Z,48.72
2018-09-03T07:58:47.781Z,47.50
2018-09-03T08:01:16.670Z,46.80
2018-09-03T08:03:45.503Z,45.86
2018-09-03T08:06:14.306Z,44.85
2018-09-03T08:08:42.927Z,43.43
2018-09-03T08:11:11.649Z,43.53
2018-09-03T08:13:41.568Z,43.00
2018-09-03T08:16:11.433Z,44.38
2018-09-03T08:18:40.940Z,45.04
2018-09-03T08:21:23.987Z,43.78
2018-09-03T08:23:53.016Z,45.41
2018-09-03T08:26:21.626Z,44.43
2018-09-03T08:28:50.455Z,44.56
2018-09-03T08:31:19.109Z,43.16
2018-09-03T08:33:47.830Z,44.16
2018-09-03T08:36:16.490Z,43.04
2018-09-03T08:38:45.498Z,40.64
2018-09-03T08:41:14.222Z,42.41
2018-09-03T08:43:42.968Z,42.29
2018-09-03T08:46:11.718Z,42.12
2018-09-03T08:48:40.609Z,41.81
2018-09-03T08:51:09.257Z,38.98
2018-09-03T08:53:37.974Z,40.03
2018-09-03T08:56:07.137Z,39.79
2018-09-03T08:58:35.925Z,41.38
2018-09-03T09:01:04.681Z,39.25
2018-09-03T09:03:38.577Z,40.02
2018-09-03T09:06:07.594Z,39.21
2018-09-03T09:08:36.320Z,37.95
2018-09-03T09:11:05.325Z,37.21
2018-09-03T09:13:33.904Z,37.71
2018-09-03T09:16:02.642Z,38.77
2018-09-03T09:18:31.545Z,38.68
2018-09-03T09:21:00.355Z,37.17
2018-09-03T09:23:28.904Z,37.31
2018-09-03T09:25:57.679Z,35.64
2018-09-03T09:28:26.591Z,36.04
2018-09-03T09:30:55.190Z,36.65
2018-09-03T09:33:26.945Z,35.81
2018-09-03T09:35:55.650Z,34.53
2018-09-03T09:38:24.301Z,36.09
2018-09-03T09:40:53.047Z,35.88
2018-09-03T09:43:21.931Z,35.21
2018-09-03T09:45:50.687Z,34.11
2018-09-03T09:48:19.433Z,34.27
2018-09-03T09:50:48.193Z,34.85
2018-09-03T09:53:16.912Z,35.60
2018-09-03T09:55:45.727Z,35.90
2018-09-03T09:58:14.321Z,35.58
2018-09-03T10:01:49.891Z,34.29
2018-09-03T10:04:18.560Z,33.61
2018-09-03T10:06:47.318Z,35.14
2018-09-03T10:09:16.020Z,35.87
2018-09-03T10:11:44.790Z,35.52
2018-09-03T10:14:13.587Z,34.54
2018-09-03T10:16:42.347Z,34.60
2018-09-03T10:19:11.019Z,34.39
2018-09-03T10:21:39.840Z,33.75
2018-09-03T10:24:08.727Z,34.31
2018-09-03T10:26:37.477Z,33.05
2018-09-03T10:29:06.170Z,32.84
2018-09-03T10:31:35.090Z,32.25
2018-09-03T10:34:03.781Z,31.70
2018-09-03T10:36:32.794Z,32.78
2018-09-03T10:39:01.644Z,32.54
2018-09-03T10:41:30.287Z,32.79
2018-09-03T10:43:58.957Z,32.75
2018-09-03T10:46:27.812Z,32.21
2018-09-03T10:48:56.742Z,32.29
2018-09-03T10:51:25.768Z,32.32
2018-09-03T10:53:54.509Z,33.35
2018-09-03T10:56:23.300Z,31.76
2018-09-03T10:58:52.149Z,31.37
2018-09-03T11:01:20.975Z,32.53
2018-09-03T11:03:52.594Z,32.22
2018-09-03T11:06:21.618Z,31.84
2018-09-03T11:08:50.526Z,32.12
2018-09-03T11:11:19.284Z,31.70
2018-09-03T11:13:48.073Z,31.02
2018-09-03T11:16:16.826Z,31.63
2018-09-03T11:18:45.641Z,31.11
2018-09-03T11:21:14.335Z,31.08
2018-09-03T11:23:43.155Z,31.85
2018-09-03T11:26:11.870Z,32.87
2018-09-03T11:28:40.747Z,32.59
2018-09-03T11:31:09.461Z,31.65
2018-09-03T11:33:38.249Z,31.52
2018-09-03T11:36:07.089Z,30.49
2018-09-03T11:38:35.799Z,31.16
2018-09-03T11:41:04.415Z,30.03
2018-09-03T11:43:33.196Z,30.21
2018-09-03T11:46:01.892Z,31.66
2018-09-03T11:48:30.876Z,32.07
2018-09-03T11:50:59.898Z,31.83
2018-09-03T11:53:28.735Z,31.31
2018-09-03T11:55:57.500Z,30.02
2018-09-03T11:58:26.293Z,30.89
2018-09-03T12:00:58.909Z,30.07
2018-09-03T12:03:27.879Z,29.87
2018-09-03T12:05:56.907Z,29.17
2018-09-03T12:08:25.807Z,28.41
2018-09-03T12:10:54.442Z,29.09
2018-09-03T12:13:23.309Z,30.74
2018-09-03T12:16:24.617Z,29.38
2018-09-03T12:18:55.722Z,27.96
2018-09-03T12:21:24.536Z,27.41
2018-09-03T12:23:53.223Z,26.00
2018-09-03T12:26:22.369Z,28.29
2018-09-03T12:28:50.973Z,27.53
2018-09-03T12:31:19.667Z,26.66
2018-09-03T12:33:48.464Z,27.59
2018-09-03T12:36:17.389Z,27.06
2018-09-03T12:38:46.211Z,27.91
2018-09-03T12:41:15.014Z,27.61
2018-09-03T12:43:43.701Z,27.02
2018-09-03T12:46:12.434Z,27.32
2018-09-03T12:48:41.127Z,27.75
2018-09-03T12:51:09.761Z,27.34
2018-09-03T12:53:38.438Z,28.82
2018-09-03T12:56:07.323Z,27.48
2018-09-03T12:58:36.043Z,27.42
2018-09-03T13:01:04.706Z,27.98
2018-09-03T13:03:33.427Z,27.54
2018-09-03T13:06:02.060Z,27.22
2018-09-03T13:08:30.952Z,27.27
2018-09-03T13:10:59.551Z,27.61
2018-09-03T13:13:28.355Z,27.83
2018-09-03T13:15:57.157Z,29.06
2018-09-03T13:18:25.796Z,28.67
2018-09-03T13:20:55.218Z,28.44
2018-09-03T13:23:23.912Z,27.05
2018-09-03T13:25:52.609Z,27.01
2018-09-03T13:28:21.504Z,27.46
2018-09-03T13:30:50.240Z,26.95
2018-09-03T13:33:19.061Z,26.76
2018-09-03T13:35:47.742Z,25.41
2018-09-03T13:38:16.393Z,25.65
2018-09-03T13:40:45.116Z,25.95
2018-09-03T13:43:13.793Z,26.94
2018-09-03T13:45:42.710Z,26.97
2018-09-03T13:48:11.485Z,27.72
2018-09-03T13:50:40.312Z,27.86
2018-09-03T13:53:09.210Z,27.95
2018-09-03T13:55:38.117Z,28.35
2018-09-03T13:58:06.869Z,26.99
2018-09-03T14:00:35.456Z,26.74
2018-09-03T14:03:04.245Z,24.84
2018-09-03T14:05:33.300Z,23.86
2018-09-03T14:08:01.907Z,23.20
2018-09-03T14:10:30.829Z,21.52
2018-09-03T14:12:59.710Z,20.56
2018-09-03T14:15:28.665Z,20.78
2018-09-03T14:17:57.497Z,21.61
2018-09-03T14:20:26.407Z,22.10
2018-09-03T14:22:55.180Z,20.16
2018-09-03T14:25:24.378Z,21.01
2018-09-03T14:27:53.097Z,19.80
2018-09-03T14:30:21.836Z,20.25
2018-09-03T14:32:51.415Z,19.89
2018-09-03T14:35:20.148Z,20.56
2018-09-03T14:37:49.151Z,20.89
2018-09-03T14:40:20.093Z,22.92
2018-09-03T14:42:49.081Z,22.11
2018-09-03T14:45:18.095Z,21.96
2018-09-03T14:47:47.222Z,21.48
2018-09-03T14:50:16.028Z,21.94
2018-09-03T14:52:44.799Z,23.13
2018-09-03T14:55:13.537Z,22.81
2018-09-03T14:57:42.368Z,21.88
2018-09-03T15:00:11.354Z,21.27
2018-09-03T15:02:40.206Z,22.94
2018-09-03T15:05:08.940Z,23.46
2018-09-03T15:07:37.978Z,23.76
2018-09-03T15:10:06.991Z,22.99
2018-09-03T15:12:35.910Z,23.81
2018-09-03T15:15:04.981Z,24.50
2018-09-03T15:17:34.128Z,25.31
2018-09-03T15:20:03.005Z,24.63
2018-09-03T15:22:32.011Z,26.77
2018-09-03T15:25:00.671Z,28.17
2018-09-03T15:27:29.280Z,29.69
2018-09-03T15:29:58.001Z,29.21
2018-09-03T15:32:27.377Z,29.25
2018-09-03T15:34:56.370Z,28.64
2018-09-03T15:37:25.517Z,28.92
2018-09-03T15:39:54.502Z,28.93
2018-09-03T15:42:23.452Z,28.33
2018-09-03T15:44:52.618Z,29.32
2018-09-03T15:47:21.616Z,29.57
2018-09-03T15:49:50.636Z,30.21
2018-09-03T15:52:19.420Z,31.50
2018-09-03T15:54:48.033Z,31.77
2018-09-03T15:57:16.973Z,32.52
2018-09-03T15:59:45.768Z,32.65
2018-09-03T16:02:14.457Z,33.31
2018-09-03T16:04:43.708Z,33.53
2018-09-03T16:07:12.602Z,33.86
2018-09-03T16:09:41.589Z,34.25
2018-09-03T16:12:10.413Z,34.42
2018-09-03T16:14:39.779Z,34.69
2018-09-03T16:17:09.190Z,35.35
2018-09-03T16:19:38.027Z,35.32
2018-09-03T16:22:07.236Z,33.30
2018-09-03T16:24:36.127Z,32.56
2018-09-03T16:27:04.930Z,31.90
2018-09-03T16:29:33.907Z,32.50
2018-09-03T16:32:02.754Z,32.63
2018-09-03T16:34:31.811Z,32.27
2018-09-03T16:37:00.899Z,31.82
2018-09-03T16:39:30.143Z,32.31
2018-09-03T16:41:59.418Z,32.00
2018-09-03T16:44:28.298Z,32.57
2018-09-03T16:46:57.161Z,33.03
2018-09-03T16:49:25.926Z,32.11
2018-09-03T16:51:54.620Z,32.34
2018-09-03T16:54:23.524Z,32.74
2018-09-03T16:56:52.256Z,32.47
2018-09-03T16:59:21.296Z,32.75
2018-09-03T17:01:50.136Z,32.68
2018-09-03T17:04:18.991Z,33.38
2018-09-03T17:06:47.841Z,33.48
2018-09-03T17:09:16.629Z,33.44
2018-09-03T17:11:45.336Z,33.91
2018-09-03T17:14:14.220Z,33.97
2018-09-03T17:16:43.175Z,34.21
2018-09-03T17:19:11.991Z,34.19
2018-09-03T17:21:40.802Z,34.66
2018-09-03T17:24:09.437Z,35.30
2018-09-03T17:26:38.230Z,36.70
2018-09-03T17:29:06.956Z,36.09
2018-09-03T17:31:35.874Z,37.18
2018-09-03T17:34:04.546Z,37.24
2018-09-03T17:36:33.299Z,37.88
2018-09-03T17:39:02.316Z,38.20
2018-09-03T17:41:30.941Z,38.64
2018-09-03T17:43:59.870Z,38.90
2018-09-03T17:46:28.497Z,39.06
2018-09-03T17:48:57.441Z,40.00
2018-09-03T17:51:26.205Z,40.21
2018-09-03T17:53:54.962Z,40.78
2018-09-03T17:56:23.887Z,40.74
2018-09-03T17:58:52.710Z,41.54
2018-09-03T18:01:21.583Z,41.94
2018-09-03T18:03:50.606Z,42.77
2018-09-03T18:06:19.351Z,42.56
2018-09-03T18:08:48.231Z,42.93
2018-09-03T18:11:17.028Z,43.34
2018-09-03T18:13:45.785Z,42.54
2018-09-03T18:16:14.776Z,43.23
2018-09-03T18:18:43.598Z,42.59
2018-09-03T18:21:12.426Z,44.09
2018-09-03T18:23:41.319Z,43.80
2018-09-03T18:26:10.265Z,44.09
2018-09-03T18:28:39.409Z,44.51
2018-09-03T18:31:08.255Z,44.94
2018-09-03T18:33:37.118Z,45.84
2018-09-03T18:36:06.087Z,46.04
2018-09-03T18:38:34.956Z,45.95
2018-09-03T18:41:04.266Z,47.79
2018-09-03T18:43:33.267Z,47.17
2018-09-03T18:46:02.061Z,48.04
2018-09-03T18:48:31.430Z,49.09
2018-09-03T18:51:00.176Z,48.15
2018-09-03T18:53:29.073Z,48.82
2018-09-03T18:55:57.815Z,49.69
2018-09-03T18:58:26.564Z,49.08
2018-09-03T19:00:55.318Z,49.78
2018-09-03T19:03:24.326Z,50.19
2018-09-03T19:05:53.315Z,51.35
2018-09-03T19:08:22.010Z,50.91
2018-09-03T19:10:50.727Z,51.75
2018-09-03T19:13:19.467Z,52.23
2018-09-03T19:15:48.533Z,51.39
2018-09-03T19:18:17.557Z,52.49
2018-09-03T19:20:46.533Z,54.44
2018-09-03T19:23:15.264Z,53.44
2018-09-03T19:25:44.101Z,54.50
2018-09-03T19:28:13.134Z,53.93
2018-09-03T19:30:41.914Z,56.37
2018-09-03T19:33:10.600Z,56.21
2018-09-03T19:35:39.580Z,55.36
2018-09-03T19:38:08.247Z,55.64
2018-09-03T19:40:37.100Z,56.65
2018-09-03T19:43:06.094Z,57.04
2018-09-03T19:45:35.004Z,57.82
2018-09-03T19:48:03.859Z,59.40
2018-09-03T19:50:32.754Z,57.29
2018-09-03T19:53:01.789Z,57.34
2018-09-03T19:55:30.529Z,60.49
2018-09-03T19:57:59.197Z,58.13
2018-09-03T20:00:28.277Z,61.26
2018-09-03T20:02:56.941Z,59.59
2018-09-03T20:05:25.628Z,59.37
2018-09-03T20:07:54.312Z,60.80
2018-09-03T20:10:23.207Z,59.77
2018-09-03T20:12:51.991Z,59.96
2018-09-03T20:15:25.069Z,61.29
2018-09-03T20:17:54.454Z,60.81
2018-09-03T20:20:23.573Z,61.10
2018-09-03T20:22:52.513Z,61.49
2018-09-03T20:25:21.653Z,62.21
2018-09-03T20:27:50.672Z,61.93
2018-09-03T20:30:19.460Z,64.09
2018-09-03T20:32:48.368Z,64.52
2018-09-03T20:35:17.287Z,64.63
2018-09-03T20:37:45.943Z,63.23
2018-09-03T20:40:14.760Z,63.85
2018-09-03T20:42:43.624Z,63.76
2018-09-03T20:45:12.696Z,63.86
2018-09-03T20:47:41.579Z,66.64
2018-09-03T20:50:10.294Z,65.19
2018-09-03T20:52:39.133Z,65.27
2018-09-03T20:55:07.989Z,68.19
2018-09-03T20:57:37.037Z,68.38
2018-09-03T21:00:06.749Z,69.17
2018-09-03T21:02:35.389Z,67.91
2018-09-03T21:05:04.199Z,71.38
2018-09-03T21:07:32.984Z,68.55
2018-09-03T21:10:01.707Z,70.48
2018-09-03T21:12:30.700Z,70.23
2018-09-03T21:14:59.606Z,69.97
2018-09-03T21:17:28.318Z,71.23
2018-09-03T21:19:57.255Z,71.92
2018-09-03T21:22:26.133Z,72.63
2018-09-03T21:24:54.856Z,71.95
2018-09-03T21:27:23.548Z,71.49
2018-09-03T21:29:52.481Z,73.45
2018-09-03T21:32:21.489Z,71.82
2018-09-03T21:34:50.277Z,71.89
2018-09-03T21:37:18.983Z,73.35
2018-09-03T21:39:47.820Z,73.65
2018-09-03T21:42:16.666Z,70.96
2018-09-03T21:44:45.404Z,70.72
2018-09-03T21:47:14.248Z,71.16
2018-09-03T21:49:42.967Z,70.35
2018-09-03T21:52:11.928Z,72.03
2018-09-03T21:54:40.640Z,71.80
2018-09-03T21:57:09.415Z,70.68
2018-09-03T21:59:38.046Z,72.43
2018-09-03T22:02:09.578Z,73.92
2018-09-03T22:04:40.226Z,72.18
2018-09-03T22:07:08.941Z,71.63
2018-09-03T22:09:37.824Z,71.61
2018-09-03T22:12:07.139Z,72.30
2018-09-03T22:14:35.972Z,72.03
2018-09-03T22:17:05.258Z,71.65
2018-09-03T22:19:33.994Z,72.00
2018-09-03T22:22:02.706Z,71.76
2018-09-03T22:24:31.721Z,72.12
2018-09-03T22:27:00.822Z,72.41
2018-09-03T22:29:29.781Z,72.18
2018-09-03T22:31:58.735Z,72.39
2018-09-03T22:34:27.987Z,72.91
2018-09-03T22:36:56.801Z,72.95
2018-09-03T22:39:25.649Z,72.61
2018-09-03T22:41:54.613Z,73.02
2018-09-03T22:44:23.530Z,73.39
2018-09-03T22:46:58.669Z,72.94
2018-09-03T22:49:27.558Z,73.26
2018-09-03T22:51:56.406Z,73.26
2018-09-03T22:54:25.436Z,72.66
2018-09-03T22:56:54.204Z,73.75
2018-09-03T22:59:22.915Z,72.99
2018-09-03T23:01:51.833Z,74.37
2018-09-03T23:04:20.614Z,73.31
2018-09-03T23:06:49.389Z,73.46
2018-09-03T23:09:18.417Z,74.13
2018-09-03T23:11:47.471Z,74.05
2018-09-03T23:14:16.190Z,73.62
2018-09-03T23:16:44.918Z,73.38
2018-09-03T23:19:13.834Z,74.12
2018-09-03T23:21:42.560Z,73.68
2018-09-03T23:24:11.244Z,73.72
2018-09-03T23:26:40.975Z,74.19
2018-09-03T23:29:09.689Z,75.47
2018-09-03T23:31:38.399Z,74.06
2018-09-03T23:34:07.037Z,74.19
2018-09-03T23:36:35.757Z,73.94
2018-09-03T23:39:05.428Z,74.13
2018-09-03T23:41:34.195Z,75.12
2018-09-03T23:44:02.862Z,74.49
2018-09-03T23:46:31.748Z,74.16
2018-09-03T23:49:00.573Z,74.11
2018-09-03T23:51:29.229Z,74.81
2018-09-03T23:53:58.156Z,74.91
2018-09-03T23:56:27.212Z,74.80
2018-09-03T23:58:56.049Z,75.46
